createdAt,value
2018-04-11T00:02:27.747Z,1.50
2018-04-11T00:04:56.368Z,1.70
2018-04-11T00:07:25.012Z,1.52
2018-04-11T00:12:48.804Z,1.95
2018-04-11T00:15:21.789Z,1.65
2018-04-11T00:17:52.257Z,1.65
2018-04-11T00:20:22.695Z,1.25
2018-04-11T00:22:53.164Z,1.50
2018-04-11T00:25:24.472Z,1.92
2018-04-11T00:27:54.949Z,1.70
2018-04-11T00:30:25.262Z,1.50
2018-04-11T00:32:56.197Z,1.75
2018-04-11T00:35:27.955Z,1.95
2018-04-11T00:38:08.894Z,1.60
2018-04-11T00:40:39.517Z,1.75
2018-04-11T00:43:13.937Z,2.15
2018-04-11T00:45:44.454Z,1.52
2018-04-11T00:48:14.986Z,1.60
2018-04-11T00:50:46.014Z,2.15
2018-04-11T00:53:24.737Z,2.00
2018-04-11T00:55:55.077Z,1.70
2018-04-11T00:58:27.172Z,2.10
2018-04-11T01:00:57.895Z,1.98
2018-04-11T01:03:28.343Z,2.10
2018-04-11T01:05:58.774Z,1.87
2018-04-11T01:08:29.714Z,1.90
2018-04-11T01:11:00.234Z,2.10
2018-04-11T01:13:32.334Z,1.90
2018-04-11T01:16:02.841Z,2.28
2018-04-11T01:18:33.337Z,1.70
2018-04-11T01:21:04.423Z,2.10
2018-04-11T01:23:37.475Z,1.87
2018-04-11T01:26:08.394Z,2.60
2018-04-11T01:28:39.098Z,1.87
2018-04-11T01:31:10.598Z,2.20
2018-04-11T01:33:41.830Z,2.40
2018-04-11T01:36:12.262Z,2.25
2018-04-11T01:38:42.805Z,2.37
2018-04-11T01:41:13.909Z,2.40
2018-04-11T01:43:51.593Z,2.28
2018-04-11T01:46:22.413Z,2.40
2018-04-11T01:48:52.929Z,2.65
2018-04-11T01:51:24.773Z,2.28
2018-04-11T01:53:55.378Z,3.05
2018-04-11T01:56:25.897Z,2.30
2018-04-11T01:58:56.437Z,2.80
2018-04-11T02:01:31.227Z,2.50
2018-04-11T02:04:01.825Z,2.12
2018-04-11T02:06:32.296Z,2.67
2018-04-11T02:09:02.876Z,3.05
2018-04-11T02:11:34.247Z,2.78
2018-04-11T02:14:05.380Z,2.40
2018-04-11T02:16:35.926Z,2.80
2018-04-11T02:19:07.390Z,2.87
2018-04-11T02:21:40.399Z,2.70
2018-04-11T02:24:11.358Z,3.47
2018-04-11T02:26:42.186Z,3.47
2018-04-11T02:29:12.674Z,3.37
2018-04-11T02:31:43.022Z,3.25
2018-04-11T02:34:13.883Z,3.22
2018-04-11T02:36:44.551Z,3.30
2018-04-11T02:39:15.023Z,3.25
2018-04-11T02:41:45.422Z,3.25
2018-04-11T02:44:16.584Z,3.87
2018-04-11T02:46:47.134Z,2.70
2018-04-11T02:49:17.727Z,3.67
2018-04-11T02:51:49.601Z,3.65
2018-04-11T02:54:35.603Z,3.70
2018-04-11T02:57:05.963Z,4.00
2018-04-11T02:59:52.409Z,4.03
2018-04-11T03:02:35.201Z,3.80
2018-04-11T03:06:02.562Z,4.28
2018-04-11T03:08:45.091Z,3.87
2018-04-11T03:15:16.027Z,3.97
2018-04-11T03:17:46.503Z,4.78
2018-04-11T03:20:18.371Z,4.65
2018-04-11T03:22:48.798Z,4.37
2018-04-11T03:25:27.741Z,4.20
2018-04-11T03:27:58.958Z,4.68
2018-04-11T03:30:30.157Z,4.30
2018-04-11T03:33:03.013Z,4.00
2018-04-11T03:35:34.301Z,3.90
2018-04-11T03:38:05.153Z,4.18
2018-04-11T03:40:35.553Z,4.53
2018-04-11T03:43:05.966Z,3.37
2018-04-11T03:45:36.691Z,4.70
2018-04-11T03:48:07.914Z,4.15
2018-04-11T03:50:38.331Z,3.35
2018-04-11T03:53:09.018Z,4.35
2018-04-11T03:55:39.789Z,4.78
2018-04-11T03:58:11.413Z,3.80
2018-04-11T04:00:42.098Z,3.80
2018-04-11T04:03:12.912Z,4.72
2018-04-11T04:05:43.552Z,4.30
2018-04-11T04:08:14.261Z,3.37
2018-04-11T04:10:46.580Z,2.83
2018-04-11T04:13:17.141Z,3.37
2018-04-11T04:18:00.422Z,3.00
2018-04-11T04:20:32.105Z,4.32
2018-04-11T04:23:02.563Z,4.43
2018-04-11T04:25:34.749Z,3.87
2018-04-11T04:28:05.127Z,4.30
2018-04-11T04:30:35.568Z,4.95
2018-04-11T04:33:06.035Z,3.72
2018-04-11T04:35:36.632Z,4.00
2018-04-11T04:38:07.131Z,4.57
2018-04-11T04:40:38.871Z,3.80
2018-04-11T04:43:09.715Z,3.75
2018-04-11T04:45:40.243Z,4.20
2018-04-11T04:48:11.188Z,3.70
2018-04-11T04:50:41.599Z,4.12
2018-04-11T04:53:11.991Z,3.80
2018-04-11T04:55:42.858Z,5.40
2018-04-11T04:58:13.251Z,6.00
2018-04-11T05:00:48.595Z,4.87
2018-04-11T05:03:19.235Z,4.57
2018-04-11T05:05:50.107Z,4.85
2018-04-11T05:08:20.643Z,4.72
2018-04-11T05:10:51.432Z,5.85
2018-04-11T05:13:21.931Z,4.85
2018-04-11T05:15:54.066Z,5.12
2018-04-11T05:18:24.990Z,4.55
2018-04-11T05:20:55.395Z,5.40
2018-04-11T05:23:25.994Z,5.37
2018-04-11T05:25:56.966Z,6.12
2018-04-11T05:28:27.599Z,6.00
2018-04-11T05:33:27.837Z,6.10
2018-04-11T05:35:57.011Z,5.22
2018-04-11T05:38:26.327Z,5.75
2018-04-11T05:40:55.611Z,5.22
2018-04-11T05:43:24.210Z,5.57
2018-04-11T05:45:52.820Z,5.50
2018-04-11T05:48:21.594Z,5.10
2018-04-11T05:50:51.476Z,6.18
2018-04-11T05:53:21.012Z,5.45
2018-04-11T05:55:49.606Z,5.43
2018-04-11T05:58:18.253Z,7.95
2018-04-11T06:00:47.188Z,6.45
2018-04-11T06:03:15.852Z,6.93
2018-04-11T06:05:44.589Z,11.60
2018-04-11T06:08:13.320Z,7.57
2018-04-11T06:10:42.213Z,6.65
2018-04-11T06:13:10.854Z,6.30
2018-04-11T06:18:21.262Z,7.18
2018-04-11T06:20:50.013Z,6.93
2018-04-11T06:23:19.298Z,5.95
2018-04-11T06:25:48.832Z,7.50
2018-04-11T06:28:17.869Z,6.15
2018-04-11T06:30:46.560Z,5.90
2018-04-11T06:33:15.339Z,6.95
2018-04-11T06:35:45.095Z,5.62
2018-04-11T06:38:13.819Z,5.03
2018-04-11T06:40:42.428Z,5.32
2018-04-11T06:43:11.546Z,6.40
2018-04-11T06:45:40.232Z,5.85
2018-04-11T06:48:09.383Z,5.43
2018-04-11T06:50:38.038Z,4.90
2018-04-11T06:53:08.075Z,4.47
2018-04-11T06:55:36.735Z,4.47
2018-04-11T06:58:05.519Z,4.12
2018-04-11T07:00:34.307Z,3.75
2018-04-11T07:03:03.252Z,3.87
2018-04-11T07:05:31.840Z,3.60
2018-04-11T07:08:00.532Z,4.07
2018-04-11T07:10:29.254Z,4.32
2018-04-11T07:12:59.295Z,4.03
2018-04-11T07:15:28.221Z,4.00
2018-04-11T07:17:56.915Z,2.90
2018-04-11T07:20:26.226Z,3.05
2018-04-11T07:22:54.878Z,3.28
2018-04-11T07:25:24.214Z,2.95
2018-04-11T07:27:53.189Z,6.03
2018-04-11T07:30:21.808Z,3.65
2018-04-11T07:32:51.327Z,3.90
2018-04-11T07:35:19.918Z,3.30
2018-04-11T07:37:49.886Z,3.15
2018-04-11T07:40:18.533Z,3.85
2018-04-11T07:42:47.276Z,4.12
2018-04-11T07:45:15.922Z,4.18
2018-04-11T07:47:45.859Z,4.03
2018-04-11T07:50:14.593Z,3.37
2018-04-11T07:52:43.320Z,4.43
2018-04-11T07:55:12.074Z,3.35
2018-04-11T07:57:40.958Z,4.15
2018-04-11T08:00:09.621Z,3.28
2018-04-11T08:02:38.310Z,2.90
2018-04-11T08:05:07.060Z,2.45
2018-04-11T08:07:35.935Z,1.87
2018-04-11T08:10:04.581Z,2.50
2018-04-11T08:12:33.197Z,2.08
2018-04-11T08:15:01.831Z,2.10
2018-04-11T08:17:30.515Z,1.92
2018-04-11T08:20:01.789Z,1.90
2018-04-11T08:22:30.646Z,1.98
2018-04-11T08:24:59.285Z,2.47
2018-04-11T08:27:27.880Z,1.62
2018-04-11T08:29:56.680Z,2.30
2018-04-11T08:32:25.824Z,2.17
2018-04-11T08:34:54.410Z,2.35
2018-04-11T08:37:22.964Z,1.90
2018-04-11T08:39:51.521Z,2.22
2018-04-11T08:42:20.392Z,2.12
2018-04-11T08:44:49.017Z,2.55
2018-04-11T08:47:17.644Z,2.22
2018-04-11T08:49:46.204Z,2.08
2018-04-11T08:52:15.108Z,2.08
2018-04-11T08:54:43.683Z,2.72
2018-04-11T08:57:12.292Z,1.95
2018-04-11T08:59:40.956Z,2.62
2018-04-11T09:02:10.579Z,3.22
2018-04-11T09:04:39.172Z,2.37
2018-04-11T09:07:08.049Z,1.90
2018-04-11T09:09:36.782Z,2.17
2018-04-11T09:12:05.793Z,3.08
2018-04-11T09:14:34.477Z,2.87
2018-04-11T09:17:03.089Z,3.10
2018-04-11T09:19:31.668Z,2.50
2018-04-11T09:22:00.569Z,2.60
2018-04-11T09:24:29.128Z,2.40
2018-04-11T09:26:57.800Z,2.55
2018-04-11T09:29:27.759Z,2.33
2018-04-11T09:31:56.768Z,2.60
2018-04-11T09:34:25.415Z,1.87
2018-04-11T09:36:53.972Z,1.85
2018-04-11T09:39:22.579Z,2.40
2018-04-11T09:41:51.577Z,2.40
2018-04-11T09:44:20.240Z,3.17
2018-04-11T09:46:50.156Z,2.40
2018-04-11T09:49:18.725Z,2.00
2018-04-11T09:51:47.307Z,2.22
2018-04-11T09:54:15.971Z,1.62
2018-04-11T09:56:45.048Z,2.20
2018-04-11T09:59:21.388Z,2.17
2018-04-11T10:01:50.624Z,1.83
2018-04-11T10:04:19.516Z,2.10
2018-04-11T10:06:48.309Z,1.95
2018-04-11T10:09:17.292Z,2.10
2018-04-11T10:11:46.177Z,1.65
2018-04-11T10:14:15.243Z,2.00
2018-04-11T10:16:44.949Z,1.83
2018-04-11T10:19:13.600Z,2.17
2018-04-11T10:21:51.152Z,1.80
2018-04-11T10:25:31.942Z,1.75
2018-04-11T10:28:05.583Z,1.30
2018-04-11T10:30:36.591Z,1.33
2018-04-11T10:38:09.786Z,1.90
2018-04-11T10:40:45.073Z,1.45
2018-04-11T10:43:17.589Z,1.92
2018-04-11T10:45:53.109Z,1.45
2018-04-11T10:48:25.728Z,1.35
2018-04-11T10:50:57.793Z,1.58
2018-04-11T10:53:28.237Z,1.55
2018-04-11T10:55:57.697Z,1.83
2018-04-11T10:58:26.526Z,1.23
2018-04-11T11:01:10.252Z,1.33
2018-04-11T11:03:56.291Z,2.20
2018-04-11T11:06:25.282Z,2.10
2018-04-11T11:08:53.912Z,1.90
2018-04-11T11:11:23.720Z,2.10
2018-04-11T11:13:53.438Z,1.50
2018-04-11T11:16:29.504Z,1.95
2018-04-11T11:19:03.396Z,2.17
2018-04-11T11:21:32.103Z,2.25
2018-04-11T11:24:01.073Z,2.15
2018-04-11T11:26:29.794Z,1.90
2018-04-11T11:28:59.146Z,1.98
2018-04-11T11:31:31.346Z,1.62
2018-04-11T11:34:01.582Z,1.12
2018-04-11T11:36:35.866Z,1.00
2018-04-11T11:39:05.781Z,1.10
2018-04-11T11:41:35.939Z,1.73
2018-04-11T11:44:04.690Z,1.50
2018-04-11T11:46:33.371Z,1.37
2018-04-11T11:49:01.982Z,1.50
2018-04-11T11:51:31.014Z,1.27
2018-04-11T11:53:59.827Z,1.17
2018-04-11T11:56:28.448Z,1.45
2018-04-11T11:58:57.033Z,1.45
2018-04-11T12:01:26.055Z,0.98
2018-04-11T12:03:54.644Z,1.00
2018-04-11T12:06:23.360Z,1.40
2018-04-11T12:08:51.964Z,1.98
2018-04-11T12:11:20.849Z,1.80
2018-04-11T12:13:49.782Z,1.65
2018-04-11T12:16:22.855Z,1.33
2018-04-11T12:18:52.191Z,2.20
2018-04-11T12:21:20.816Z,2.30
2018-04-11T12:23:49.781Z,1.80
2018-04-11T12:26:19.947Z,1.77
2018-04-11T12:28:50.788Z,2.35
2018-04-11T12:31:19.571Z,2.17
2018-04-11T12:33:49.257Z,1.27
2018-04-11T12:36:18.310Z,0.93
2018-04-11T12:38:47.120Z,1.30
2018-04-11T12:41:16.007Z,1.00
2018-04-11T12:43:44.714Z,0.75
2018-04-11T12:46:13.696Z,1.00
2018-04-11T12:48:43.360Z,1.62
2018-04-11T12:51:13.250Z,0.95
2018-04-11T12:53:43.677Z,1.00
2018-04-11T12:56:12.702Z,1.42
2018-04-11T12:58:41.476Z,1.20
2018-04-11T13:01:11.047Z,0.93
2018-04-11T13:03:39.901Z,1.00
2018-04-11T13:06:09.562Z,0.90
2018-04-11T13:08:38.165Z,0.77
2018-04-11T13:11:06.863Z,0.70
2018-04-11T13:13:35.709Z,0.77
2018-04-11T13:16:04.601Z,0.60
2018-04-11T13:18:33.239Z,0.80
2018-04-11T13:21:02.452Z,0.80
2018-04-11T13:23:35.582Z,0.52
2018-04-11T13:26:04.225Z,0.70
2018-04-11T13:28:34.647Z,0.88
2018-04-11T13:31:03.373Z,1.08
2018-04-11T13:33:32.535Z,0.60
2018-04-11T13:36:01.460Z,1.00
2018-04-11T13:38:30.080Z,0.80
2018-04-11T13:40:58.788Z,0.88
2018-04-11T13:43:27.788Z,0.60
2018-04-11T13:45:56.426Z,0.70
2018-04-11T13:48:25.060Z,0.70
2018-04-11T13:50:53.688Z,0.60
2018-04-11T13:53:22.654Z,0.68
2018-04-11T13:55:51.205Z,0.57
2018-04-11T13:58:19.885Z,0.50
2018-04-11T14:00:48.598Z,0.77
2018-04-11T14:03:17.953Z,0.88
2018-04-11T14:05:46.586Z,0.98
2018-04-11T14:08:15.569Z,0.80
2018-04-11T14:10:44.604Z,0.70
2018-04-11T14:13:13.484Z,0.62
2018-04-11T14:15:42.171Z,0.93
2018-04-11T14:18:11.450Z,0.88
2018-04-11T14:20:40.065Z,1.02
2018-04-11T14:23:08.959Z,0.55
2018-04-11T14:25:37.647Z,0.80
2018-04-11T14:28:06.628Z,0.88
2018-04-11T14:30:35.359Z,0.55
2018-04-11T14:33:03.986Z,0.88
2018-04-11T14:35:32.713Z,0.68
2018-04-11T14:38:01.642Z,1.20
2018-04-11T14:40:30.802Z,1.05
2018-04-11T14:42:59.450Z,1.12
2018-04-11T14:45:28.055Z,0.90
2018-04-11T14:47:58.016Z,0.95
2018-04-11T14:50:26.626Z,1.00
2018-04-11T14:52:55.314Z,0.70
2018-04-11T14:55:23.954Z,1.17
2018-04-11T14:57:52.844Z,0.82
2018-04-11T15:00:21.471Z,0.73
2018-04-11T15:02:50.240Z,1.30
2018-04-11T15:05:18.964Z,1.35
2018-04-11T15:07:47.600Z,1.35
2018-04-11T15:10:16.271Z,1.20
2018-04-11T15:12:45.172Z,1.33
2018-04-11T15:15:14.086Z,0.90
2018-04-11T15:17:42.931Z,1.00
2018-04-11T15:20:11.767Z,1.35
2018-04-11T15:22:46.148Z,1.40
2018-04-11T15:25:14.741Z,1.15
2018-04-11T15:27:43.965Z,1.15
2018-04-11T15:30:13.006Z,0.95
2018-04-11T15:32:41.989Z,1.20
2018-04-11T15:35:11.184Z,0.77
2018-04-11T15:37:39.791Z,1.02
2018-04-11T15:40:08.505Z,1.98
2018-04-11T15:42:37.321Z,1.40
2018-04-11T15:45:06.099Z,1.42
2018-04-11T15:47:35.096Z,1.35
2018-04-11T15:50:04.228Z,1.50
2018-04-11T15:52:33.125Z,1.50
2018-04-11T15:55:01.789Z,1.70
2018-04-11T15:57:30.544Z,2.20
2018-04-11T15:59:59.207Z,2.67
2018-04-11T16:02:28.186Z,1.52
2018-04-11T16:04:58.148Z,1.40
2018-04-11T16:07:26.802Z,1.40
2018-04-11T16:09:55.889Z,1.98
2018-04-11T16:12:24.638Z,2.42
2018-04-11T16:14:53.371Z,2.12
2018-04-11T16:17:22.143Z,2.75
2018-04-11T16:19:51.259Z,3.03
2018-04-11T16:22:19.920Z,1.85
2018-04-11T16:24:48.750Z,1.90
2018-04-11T16:27:20.266Z,1.65
2018-04-11T16:29:49.953Z,1.70
2018-04-11T16:32:18.606Z,1.70
2018-04-11T16:34:47.236Z,1.80
2018-04-11T16:37:15.794Z,1.17
2018-04-11T16:39:48.402Z,1.67
2018-04-11T16:42:19.004Z,1.70
2018-04-11T16:44:47.824Z,1.35
2018-04-11T16:47:16.837Z,1.40
2018-04-11T16:49:49.190Z,1.55
2018-04-11T16:52:18.962Z,1.30
2018-04-11T16:54:47.602Z,1.70
2018-04-11T16:57:17.639Z,1.48
2018-04-11T16:59:46.249Z,1.80
2018-04-11T17:02:16.252Z,2.22
2018-04-11T17:04:45.303Z,2.87
2018-04-11T17:07:16.979Z,2.45
2018-04-11T17:09:46.097Z,2.28
2018-04-11T17:12:15.964Z,1.95
2018-04-11T17:14:45.789Z,2.08
2018-04-11T17:17:15.060Z,2.00
2018-04-11T17:19:44.012Z,2.53
2018-04-11T17:22:24.040Z,1.90
2018-04-11T17:27:04.793Z,2.83
2018-04-11T17:29:44.681Z,2.17
2018-04-11T17:32:13.943Z,2.05
2018-04-11T17:34:42.938Z,2.35
2018-04-11T17:37:11.740Z,2.33
2018-04-11T17:39:41.123Z,2.97
2018-04-11T17:42:10.417Z,2.30
2018-04-11T17:44:39.702Z,2.75
2018-04-11T17:47:08.710Z,2.50
2018-04-11T17:49:39.524Z,2.90
2018-04-11T17:52:08.452Z,2.70
2018-04-11T17:54:38.290Z,2.40
2018-04-11T17:57:07.726Z,2.85
2018-04-11T17:59:40.309Z,2.78
2018-04-11T18:02:11.257Z,2.40
2018-04-11T18:04:40.753Z,2.20
2018-04-11T18:07:14.505Z,3.35
2018-04-11T18:09:45.813Z,2.22
2018-04-11T18:12:27.082Z,2.85
2018-04-11T18:14:55.758Z,2.83
2018-04-11T18:17:33.588Z,2.47
2018-04-11T18:20:11.953Z,2.75
2018-04-11T18:22:42.846Z,2.70
2018-04-11T18:25:12.681Z,2.50
2018-04-11T18:27:46.183Z,2.60
2018-04-11T18:30:15.325Z,2.80
2018-04-11T18:32:44.644Z,2.12
2018-04-11T18:35:26.729Z,2.33
2018-04-11T18:37:58.751Z,1.95
2018-04-11T18:40:29.906Z,1.83
2018-04-11T18:45:39.969Z,2.20
2018-04-11T18:48:10.487Z,2.12
2018-04-11T18:53:48.600Z,2.50
2018-04-11T18:56:17.561Z,2.10
2018-04-11T18:58:56.190Z,2.70
2018-04-11T19:01:24.921Z,2.65
2018-04-11T19:03:53.813Z,2.65
2018-04-11T19:06:22.842Z,2.10
2018-04-11T19:08:53.500Z,3.22
2018-04-11T19:11:22.308Z,3.08
2018-04-11T19:13:51.899Z,2.75
2018-04-11T19:16:21.099Z,2.40
2018-04-11T19:18:50.395Z,2.42
2018-04-11T19:21:20.372Z,2.42
2018-04-11T19:23:49.915Z,2.15
2018-04-11T19:26:18.658Z,2.20
2018-04-11T19:28:52.786Z,2.90
2018-04-11T19:31:21.904Z,2.40
2018-04-11T19:33:51.816Z,2.80
2018-04-11T19:36:21.069Z,2.37
2018-04-11T19:38:50.505Z,2.75
2018-04-11T19:41:20.743Z,2.70
2018-04-11T19:43:49.601Z,2.80
2018-04-11T19:46:18.233Z,2.60
2018-04-11T19:48:51.056Z,3.12
2018-04-11T19:51:29.849Z,2.70
2018-04-11T19:54:01.773Z,2.67
2018-04-11T19:56:31.816Z,2.97
2018-04-11T19:59:00.978Z,3.30
2018-04-11T20:01:32.365Z,2.53
2018-04-11T20:04:06.712Z,3.03
2018-04-11T20:06:35.979Z,3.00
2018-04-11T20:12:00.243Z,3.20
2018-04-11T20:14:36.187Z,2.95
2018-04-11T20:17:09.576Z,3.00
2018-04-11T20:19:41.667Z,3.15
2018-04-11T20:22:18.779Z,3.37
2018-04-11T20:24:49.491Z,4.43
2018-04-11T20:27:19.879Z,3.70
2018-04-11T20:29:50.575Z,3.30
2018-04-11T20:32:21.880Z,3.20
2018-04-11T20:34:53.159Z,3.20
2018-04-11T20:37:26.564Z,2.78
2018-04-11T20:39:57.092Z,3.58
2018-04-11T20:42:27.568Z,2.95
2018-04-11T20:44:59.027Z,3.20
2018-04-11T20:47:29.658Z,2.92
2018-04-11T20:50:01.647Z,3.47
2018-04-11T20:52:32.403Z,4.25
2018-04-11T20:55:04.107Z,4.55
2018-04-11T20:57:35.503Z,4.03
2018-04-11T21:00:06.663Z,4.12
2018-04-11T21:02:42.384Z,4.00
2018-04-11T21:05:19.284Z,4.05
2018-04-11T21:07:51.451Z,4.35
2018-04-11T21:10:24.543Z,4.15
2018-04-11T21:12:55.450Z,3.60
2018-04-11T21:15:25.891Z,3.83
2018-04-11T21:17:56.570Z,4.10
2018-04-11T21:20:27.859Z,3.85
2018-04-11T21:23:00.074Z,3.08
2018-04-11T21:25:31.053Z,3.22
2018-04-11T21:28:01.671Z,4.85
2018-04-11T21:30:32.535Z,4.22
2018-04-11T21:33:11.350Z,3.50
2018-04-11T21:35:42.417Z,3.50
2018-04-11T21:38:14.444Z,3.58
2018-04-11T21:40:45.143Z,3.17
2018-04-11T21:43:16.131Z,3.50
2018-04-11T21:45:47.424Z,3.58
2018-04-11T21:48:18.299Z,3.25
2018-04-11T21:50:48.763Z,4.00
2018-04-11T21:53:22.067Z,3.28
2018-04-11T21:55:53.470Z,3.15
2018-04-11T21:58:24.126Z,3.10
2018-04-11T22:00:55.997Z,3.50
2018-04-11T22:03:28.163Z,3.47
2018-04-11T22:06:01.172Z,3.67
2018-04-11T22:08:35.279Z,3.30
2018-04-11T22:11:05.867Z,3.45
2018-04-11T22:13:39.327Z,3.60
2018-04-11T22:16:11.703Z,4.40
2018-04-11T22:18:43.347Z,4.12
2018-04-11T22:21:15.626Z,4.37
2018-04-11T22:23:54.180Z,4.68
2018-04-11T22:26:24.523Z,4.78
2018-04-11T22:28:57.577Z,3.95
2018-04-11T22:31:28.214Z,3.87
2018-04-11T22:33:58.610Z,3.25
2018-04-11T22:36:29.307Z,3.47
2018-04-11T22:38:59.866Z,4.45
2018-04-11T22:41:30.390Z,3.47
2018-04-11T22:44:01.157Z,3.67
2018-04-11T22:46:32.074Z,3.72
2018-04-11T22:49:03.449Z,3.60
2018-04-11T22:51:39.142Z,4.22
2018-04-11T22:54:11.802Z,3.97
2018-04-11T22:56:42.329Z,3.65
2018-04-11T22:59:13.947Z,4.00
2018-04-11T23:01:50.138Z,3.80
2018-04-11T23:04:25.026Z,4.20
2018-04-11T23:06:55.866Z,4.35
2018-04-11T23:09:26.666Z,3.70
2018-04-11T23:11:57.914Z,4.57
2018-04-11T23:14:28.470Z,3.92
2018-04-11T23:16:59.482Z,4.70
2018-04-11T23:19:32.313Z,4.10
2018-04-11T23:22:03.671Z,4.72
2018-04-11T23:24:35.354Z,4.62
2018-04-11T23:27:08.754Z,5.30
2018-04-11T23:29:41.414Z,4.50
2018-04-11T23:32:12.486Z,5.32
2018-04-11T23:34:46.567Z,4.78
2018-04-11T23:37:19.875Z,5.40
2018-04-11T23:39:53.302Z,4.97
2018-04-11T23:42:23.654Z,4.00
2018-04-11T23:44:53.944Z,3.70
2018-04-11T23:47:24.298Z,4.20
2018-04-11T23:49:55.805Z,5.25
2018-04-11T23:52:27.377Z,4.00
2018-04-11T23:55:00.510Z,3.60
2018-04-11T23:57:31.957Z,3.80
